Zephyrhills, FL

9:46 AM EDT on September 22, 2014 (GMT -0400)
Zephyrhills Municipal | Change Station
CLOSE
Current Station
Airport
Location: Zephyrhills,
Elevation: 89 ft
Nearby Weather Stations

Elev 89 ft 28.23 °N, 82.16 °W | Updated 11 minutes ago

Thunderstorm
Thunderstorm
70 °F
Feels Like 70 °F
N
4
Wind Variable Wind from South

Today
High -- | Low -- °F
--% Chance of Precip.
Yesterday
High -- | Low -- °F
Precip. -- in
7:17 AM 7:25 PM
Waning Crescent, 3% visible
Pressure 30.05 in
Visibility -9999.0 miles
Clouds Mostly Cloudy 8500 ft
Dew Point 70 °F
Humidity 100%
Rainfall 0.00 in
Snow Depth Not available.
UV 2 out of 12
Pollen 2.10 out of 12
Air Quality Not available.
Flu Activity Not available.
METAR KZPH 221335Z AUTO 18003KT VCTS BKN085 21/21 A3005 RMK AO2 LTG DSNT SW AND W

More Conditions Fewer Conditions

Pressure 30.05 in
Visibility -9999.0 miles
Clouds Mostly Cloudy 8500 ft
Dew Point 70 °F
Humidity 100%
Rainfall 0.00 in
Snow Depth Not available.
UV 2 out of 12
Pollen 2.10 out of 12
Air Quality Not available.
Flu Activity Not available.
METAR KZPH 221335Z AUTO 18003KT VCTS BKN085 21/21 A3005 RMK AO2 LTG DSNT SW AND W

More Conditions Fewer Conditions

10-Day Weather Forecast

Almanac

Astronomy

Sep. 22, 2014 Rise Set
Actual Time 7:17 AM EDT 7:25 PM EDT
Civil Twilight 6:53 AM EDT 7:48 PM EDT
Nautical Twilight 6:26 AM EDT 8:15 PM EDT
Astronomical Twilight 5:58 AM EDT 8:43 PM EDT
Moon 5:50 AM EDT 6:28 PM EDT
Length of Visible Light 12h 54m
Length of Day
12h 08m
Tomorrow will be 1m 40s shorter.
Waning Crescent, 3% of the Moon is Illuminated
Today
Waning Crescent
Sep 24
New
Oct 1
First Quarter
Oct 8
Full
Oct 15
Last Quarter

Today's Extremes

State Highs State Lows

Community

WunderPhotos

Upload Photos

1,755,436 photos uploaded!

WunderBlogs® & News

By Dr. Jeff Masters
Director of Meteorology, Weather Underground
By Kari Strenfel
Meteorologist, Weather Underground
By Christopher C. Burt
Weather Historian, Weather Underground
September 22, 2014
September 22, 2014
September 22, 2014

Nearby

Snow Depth

Station Depth Elevation
No new snow has been reported.

Earthquake Activity

City Distance Mag. Time & Date
No recent earthquake activity has been reported nearby.
Minimum magnitude displayed is 2.5.

Coastal Water Temperatures

Place Temperature
St Petersburg, FL 84.9 °F
Old Port Tampa, FL 82.9 °F

Nearby Weather Stations